sensor_id;sensor_type;location;lat;lon;timestamp;P1;durP1;ratioP1;P2;durP2;ratioP2
48925;SDS011;39838;59.938;30.642;2023-06-14T00:02:20;14.38;;;6.78;;
48925;SDS011;39838;59.938;30.642;2023-06-14T00:04:47;20.30;;;6.95;;
48925;SDS011;39838;59.938;30.642;2023-06-14T00:07:16;17.65;;;7.10;;
48925;SDS011;39838;59.938;30.642;2023-06-14T00:09:45;18.42;;;6.90;;
48925;SDS011;39838;59.938;30.642;2023-06-14T00:12:12;11.85;;;6.68;;
48925;SDS011;39838;59.938;30.642;2023-06-14T00:14:40;18.48;;;7.30;;
48925;SDS011;39838;59.938;30.642;2023-06-14T00:17:07;20.25;;;6.97;;
48925;SDS011;39838;59.938;30.642;2023-06-14T00:19:35;22.40;;;7.43;;
48925;SDS011;39838;59.938;30.642;2023-06-14T00:22:02;20.92;;;6.93;;
48925;SDS011;39838;59.938;30.642;2023-06-14T00:24:30;24.25;;;7.30;;
48925;SDS011;39838;59.938;30.642;2023-06-14T00:26:58;16.13;;;6.88;;
48925;SDS011;39838;59.938;30.642;2023-06-14T00:29:26;18.40;;;7.78;;
48925;SDS011;39838;59.938;30.642;2023-06-14T00:31:53;14.60;;;7.60;;
48925;SDS011;39838;59.938;30.642;2023-06-14T00:34:20;14.23;;;7.25;;
48925;SDS011;39838;59.938;30.642;2023-06-14T00:36:47;18.45;;;7.53;;
48925;SDS011;39838;59.938;30.642;2023-06-14T00:39:15;16.60;;;7.57;;
48925;SDS011;39838;59.938;30.642;2023-06-14T00:41:42;15.02;;;7.88;;
48925;SDS011;39838;59.938;30.642;2023-06-14T00:44:11;16.75;;;7.22;;
48925;SDS011;39838;59.938;30.642;2023-06-14T00:46:40;21.20;;;7.38;;
48925;SDS011;39838;59.938;30.642;2023-06-14T00:49:07;22.92;;;7.28;;
48925;SDS011;39838;59.938;30.642;2023-06-14T00:51:35;15.18;;;6.82;;
48925;SDS011;39838;59.938;30.642;2023-06-14T00:54:02;14.18;;;6.97;;
48925;SDS011;39838;59.938;30.642;2023-06-14T00:56:30;18.40;;;6.70;;
48925;SDS011;39838;59.938;30.642;2023-06-14T00:58:57;16.73;;;7.25;;
48925;SDS011;39838;59.938;30.642;2023-06-14T01:01:26;15.95;;;7.00;;
48925;SDS011;39838;59.938;30.642;2023-06-14T01:03:54;18.80;;;6.90;;
48925;SDS011;39838;59.938;30.642;2023-06-14T01:06:23;14.82;;;6.57;;
48925;SDS011;39838;59.938;30.642;2023-06-14T01:09:01;16.55;;;7.32;;
48925;SDS011;39838;59.938;30.642;2023-06-14T01:11:38;20.50;;;7.10;;
48925;SDS011;39838;59.938;30.642;2023-06-14T01:14:12;23.80;;;6.95;;
48925;SDS011;39838;59.938;30.642;2023-06-14T01:16:43;14.43;;;6.82;;
48925;SDS011;39838;59.938;30.642;2023-06-14T01:19:11;16.77;;;6.88;;
48925;SDS011;39838;59.938;30.642;2023-06-14T01:21:39;20.67;;;7.07;;
48925;SDS011;39838;59.938;30.642;2023-06-14T01:24:08;13.70;;;6.65;;
48925;SDS011;39838;59.938;30.642;2023-06-14T01:26:36;14.43;;;6.57;;
48925;SDS011;39838;59.938;30.642;2023-06-14T01:29:11;12.45;;;6.80;;
48925;SDS011;39838;59.938;30.642;2023-06-14T01:31:42;18.02;;;7.05;;
48925;SDS011;39838;59.938;30.642;2023-06-14T01:34:10;15.98;;;6.10;;
48925;SDS011;39838;59.938;30.642;2023-06-14T01:36:38;16.52;;;6.88;;
48925;SDS011;39838;59.938;30.642;2023-06-14T01:39:10;12.68;;;6.78;;
48925;SDS011;39838;59.938;30.642;2023-06-14T01:41:40;16.48;;;6.60;;
48925;SDS011;39838;59.938;30.642;2023-06-14T01:44:08;17.65;;;6.00;;
48925;SDS011;39838;59.938;30.642;2023-06-14T01:46:36;11.90;;;6.40;;
48925;SDS011;39838;59.938;30.642;2023-06-14T01:49:04;12.38;;;6.20;;
48925;SDS011;39838;59.938;30.642;2023-06-14T01:51:32;12.27;;;6.13;;
48925;SDS011;39838;59.938;30.642;2023-06-14T01:54:00;13.05;;;5.93;;
48925;SDS011;39838;59.938;30.642;2023-06-14T01:56:29;20.30;;;6.35;;
48925;SDS011;39838;59.938;30.642;2023-06-14T01:58:57;14.32;;;6.72;;
48925;SDS011;39838;59.938;30.642;2023-06-14T02:01:25;13.07;;;6.85;;
48925;SDS011;39838;59.938;30.642;2023-06-14T02:03:52;13.80;;;6.60;;
48925;SDS011;39838;59.938;30.642;2023-06-14T02:06:19;16.70;;;6.57;;
48925;SDS011;39838;59.938;30.642;2023-06-14T02:08:47;11.18;;;6.20;;
48925;SDS011;39838;59.938;30.642;2023-06-14T02:11:14;12.50;;;6.40;;
48925;SDS011;39838;59.938;30.642;2023-06-14T02:13:43;13.18;;;6.22;;
48925;SDS011;39838;59.938;30.642;2023-06-14T02:16:11;11.95;;;6.60;;
48925;SDS011;39838;59.938;30.642;2023-06-14T02:18:40;14.35;;;6.47;;
48925;SDS011;39838;59.938;30.642;2023-06-14T02:21:07;16.50;;;6.25;;
48925;SDS011;39838;59.938;30.642;2023-06-14T02:23:37;11.85;;;6.15;;
48925;SDS011;39838;59.938;30.642;2023-06-14T02:26:05;12.07;;;6.22;;
48925;SDS011;39838;59.938;30.642;2023-06-14T02:28:32;13.00;;;6.13;;
48925;SDS011;39838;59.938;30.642;2023-06-14T02:31:02;12.00;;;6.65;;
48925;SDS011;39838;59.938;30.642;2023-06-14T02:33:29;14.27;;;6.53;;
48925;SDS011;39838;59.938;30.642;2023-06-14T02:35:57;13.85;;;6.28;;
48925;SDS011;39838;59.938;30.642;2023-06-14T02:38:24;10.57;;;6.40;;
48925;SDS011;39838;59.938;30.642;2023-06-14T02:40:51;14.00;;;6.70;;
48925;SDS011;39838;59.938;30.642;2023-06-14T02:43:19;11.75;;;6.30;;
48925;SDS011;39838;59.938;30.642;2023-06-14T02:45:46;13.70;;;6.45;;
48925;SDS011;39838;59.938;30.642;2023-06-14T02:48:15;12.05;;;6.25;;
48925;SDS011;39838;59.938;30.642;2023-06-14T02:50:42;14.88;;;5.78;;
48925;SDS011;39838;59.938;30.642;2023-06-14T02:53:10;17.92;;;6.57;;
48925;SDS011;39838;59.938;30.642;2023-06-14T02:55:37;18.63;;;6.32;;
48925;SDS011;39838;59.938;30.642;2023-06-14T02:58:05;13.05;;;6.28;;
48925;SDS011;39838;59.938;30.642;2023-06-14T03:00:32;10.63;;;6.05;;
48925;SDS011;39838;59.938;30.642;2023-06-14T03:03:00;11.98;;;6.30;;
48925;SDS011;39838;59.938;30.642;2023-06-14T03:05:31;10.98;;;6.30;;
48925;SDS011;39838;59.938;30.642;2023-06-14T03:07:58;15.23;;;6.43;;
48925;SDS011;39838;59.938;30.642;2023-06-14T03:10:25;15.10;;;5.93;;
48925;SDS011;39838;59.938;30.642;2023-06-14T03:12:54;13.45;;;6.75;;
48925;SDS011;39838;59.938;30.642;2023-06-14T03:15:21;18.35;;;6.60;;
48925;SDS011;39838;59.938;30.642;2023-06-14T03:17:50;15.18;;;6.35;;
48925;SDS011;39838;59.938;30.642;2023-06-14T03:20:19;15.27;;;6.47;;
48925;SDS011;39838;59.938;30.642;2023-06-14T03:22:47;9.45;;;6.57;;
48925;SDS011;39838;59.938;30.642;2023-06-14T03:25:15;15.88;;;6.20;;
48925;SDS011;39838;59.938;30.642;2023-06-14T03:27:45;19.42;;;6.95;;
48925;SDS011;39838;59.938;30.642;2023-06-14T03:30:12;10.80;;;6.32;;
48925;SDS011;39838;59.938;30.642;2023-06-14T03:32:40;16.38;;;6.55;;
48925;SDS011;39838;59.938;30.642;2023-06-14T03:35:07;13.95;;;6.43;;
48925;SDS011;39838;59.938;30.642;2023-06-14T03:40:11;16.13;;;5.97;;
48925;SDS011;39838;59.938;30.642;2023-06-14T03:42:39;11.73;;;6.30;;
48925;SDS011;39838;59.938;30.642;2023-06-14T03:45:06;11.80;;;5.97;;
48925;SDS011;39838;59.938;30.642;2023-06-14T03:47:34;14.40;;;6.47;;
48925;SDS011;39838;59.938;30.642;2023-06-14T03:50:02;12.80;;;6.22;;
48925;SDS011;39838;59.938;30.642;2023-06-14T03:52:30;14.77;;;6.43;;
48925;SDS011;39838;59.938;30.642;2023-06-14T03:54:58;13.75;;;5.90;;
48925;SDS011;39838;59.938;30.642;2023-06-14T03:57:27;16.00;;;6.70;;
48925;SDS011;39838;59.938;30.642;2023-06-14T03:59:54;13.82;;;6.57;;
48925;SDS011;39838;59.938;30.642;2023-06-14T04:02:21;21.15;;;6.72;;
48925;SDS011;39838;59.938;30.642;2023-06-14T04:04:49;17.33;;;7.18;;
48925;SDS011;39838;59.938;30.642;2023-06-14T04:07:16;17.63;;;6.53;;
48925;SDS011;39838;59.938;30.642;2023-06-14T04:09:45;15.35;;;7.13;;
48925;SDS011;39838;59.938;30.642;2023-06-14T04:12:12;17.70;;;6.60;;
48925;SDS011;39838;59.938;30.642;2023-06-14T04:14:41;15.65;;;7.05;;
48925;SDS011;39838;59.938;30.642;2023-06-14T04:17:08;17.05;;;6.88;;
48925;SDS011;39838;59.938;30.642;2023-06-14T04:19:35;17.98;;;6.85;;
48925;SDS011;39838;59.938;30.642;2023-06-14T04:22:03;20.92;;;7.25;;
48925;SDS011;39838;59.938;30.642;2023-06-14T04:24:31;18.00;;;6.90;;
48925;SDS011;39838;59.938;30.642;2023-06-14T04:27:00;15.80;;;6.60;;
48925;SDS011;39838;59.938;30.642;2023-06-14T04:29:28;17.67;;;6.82;;
48925;SDS011;39838;59.938;30.642;2023-06-14T04:31:58;16.52;;;6.72;;
48925;SDS011;39838;59.938;30.642;2023-06-14T04:34:27;16.65;;;6.72;;
48925;SDS011;39838;59.938;30.642;2023-06-14T04:36:57;17.08;;;6.28;;
48925;SDS011;39838;59.938;30.642;2023-06-14T04:39:26;25.15;;;6.65;;
48925;SDS011;39838;59.938;30.642;2023-06-14T04:41:54;20.40;;;6.32;;
48925;SDS011;39838;59.938;30.642;2023-06-14T04:44:23;22.13;;;6.18;;
48925;SDS011;39838;59.938;30.642;2023-06-14T04:46:55;13.93;;;5.97;;
48925;SDS011;39838;59.938;30.642;2023-06-14T04:49:24;18.33;;;6.18;;
48925;SDS011;39838;59.938;30.642;2023-06-14T04:51:52;10.90;;;5.20;;
48925;SDS011;39838;59.938;30.642;2023-06-14T04:54:22;13.68;;;5.70;;
48925;SDS011;39838;59.938;30.642;2023-06-14T04:56:50;17.88;;;5.25;;
48925;SDS011;39838;59.938;30.642;2023-06-14T04:59:18;12.82;;;4.10;;
48925;SDS011;39838;59.938;30.642;2023-06-14T05:01:45;11.50;;;3.78;;
48925;SDS011;39838;59.938;30.642;2023-06-14T05:04:15;8.98;;;3.60;;
48925;SDS011;39838;59.938;30.642;2023-06-14T05:06:42;11.43;;;3.80;;
48925;SDS011;39838;59.938;30.642;2023-06-14T05:09:10;10.15;;;3.50;;
48925;SDS011;39838;59.938;30.642;2023-06-14T05:11:37;9.20;;;3.80;;
48925;SDS011;39838;59.938;30.642;2023-06-14T05:14:05;5.35;;;3.10;;
48925;SDS011;39838;59.938;30.642;2023-06-14T05:16:32;13.85;;;3.70;;
48925;SDS011;39838;59.938;30.642;2023-06-14T05:19:00;10.38;;;3.47;;
48925;SDS011;39838;59.938;30.642;2023-06-14T05:21:29;10.65;;;3.90;;
48925;SDS011;39838;59.938;30.642;2023-06-14T05:23:59;8.63;;;3.50;;
48925;SDS011;39838;59.938;30.642;2023-06-14T05:26:26;7.22;;;3.30;;
48925;SDS011;39838;59.938;30.642;2023-06-14T05:28:54;9.60;;;3.50;;
48925;SDS011;39838;59.938;30.642;2023-06-14T05:31:22;7.40;;;3.70;;
48925;SDS011;39838;59.938;30.642;2023-06-14T05:33:49;10.70;;;3.40;;
48925;SDS011;39838;59.938;30.642;2023-06-14T05:36:17;10.43;;;3.50;;
48925;SDS011;39838;59.938;30.642;2023-06-14T05:38:46;23.40;;;4.88;;
48925;SDS011;39838;59.938;30.642;2023-06-14T05:41:13;12.32;;;3.47;;
48925;SDS011;39838;59.938;30.642;2023-06-14T05:43:41;10.80;;;3.40;;
48925;SDS011;39838;59.938;30.642;2023-06-14T05:46:08;7.28;;;3.35;;
48925;SDS011;39838;59.938;30.642;2023-06-14T05:48:35;13.30;;;3.47;;
48925;SDS011;39838;59.938;30.642;2023-06-14T05:51:03;8.63;;;3.40;;
48925;SDS011;39838;59.938;30.642;2023-06-14T05:53:34;5.90;;;3.58;;
48925;SDS011;39838;59.938;30.642;2023-06-14T05:56:03;9.50;;;3.40;;
48925;SDS011;39838;59.938;30.642;2023-06-14T05:58:30;5.15;;;3.13;;
48925;SDS011;39838;59.938;30.642;2023-06-14T06:00:58;12.35;;;3.58;;
48925;SDS011;39838;59.938;30.642;2023-06-14T06:03:26;6.97;;;3.17;;
48925;SDS011;39838;59.938;30.642;2023-06-14T06:05:54;7.75;;;3.30;;
48925;SDS011;39838;59.938;30.642;2023-06-14T06:08:22;9.98;;;3.20;;
48925;SDS011;39838;59.938;30.642;2023-06-14T06:10:49;8.82;;;3.45;;
48925;SDS011;39838;59.938;30.642;2023-06-14T06:13:18;15.48;;;3.90;;
48925;SDS011;39838;59.938;30.642;2023-06-14T06:15:45;7.50;;;3.33;;
48925;SDS011;39838;59.938;30.642;2023-06-14T06:18:13;11.48;;;3.63;;
48925;SDS011;39838;59.938;30.642;2023-06-14T06:20:41;7.50;;;3.17;;
48925;SDS011;39838;59.938;30.642;2023-06-14T06:23:09;8.93;;;3.22;;
48925;SDS011;39838;59.938;30.642;2023-06-14T06:25:36;9.98;;;3.40;;
48925;SDS011;39838;59.938;30.642;2023-06-14T06:28:04;6.15;;;3.30;;
48925;SDS011;39838;59.938;30.642;2023-06-14T06:30:32;6.55;;;3.13;;
48925;SDS011;39838;59.938;30.642;2023-06-14T06:33:00;9.85;;;3.35;;
48925;SDS011;39838;59.938;30.642;2023-06-14T06:35:27;8.55;;;3.22;;
48925;SDS011;39838;59.938;30.642;2023-06-14T06:37:56;7.55;;;3.38;;
48925;SDS011;39838;59.938;30.642;2023-06-14T06:40:23;6.85;;;3.72;;
48925;SDS011;39838;59.938;30.642;2023-06-14T06:42:50;13.38;;;3.50;;
48925;SDS011;39838;59.938;30.642;2023-06-14T06:45:18;10.98;;;3.65;;
48925;SDS011;39838;59.938;30.642;2023-06-14T06:47:47;8.85;;;3.72;;
48925;SDS011;39838;59.938;30.642;2023-06-14T06:50:15;10.05;;;3.20;;
48925;SDS011;39838;59.938;30.642;2023-06-14T06:52:42;8.57;;;3.42;;
48925;SDS011;39838;59.938;30.642;2023-06-14T06:55:10;7.60;;;3.20;;
48925;SDS011;39838;59.938;30.642;2023-06-14T06:57:38;7.90;;;3.60;;
48925;SDS011;39838;59.938;30.642;2023-06-14T07:00:06;6.82;;;3.50;;
48925;SDS011;39838;59.938;30.642;2023-06-14T07:02:35;8.48;;;3.45;;
48925;SDS011;39838;59.938;30.642;2023-06-14T07:05:04;9.68;;;3.42;;
48925;SDS011;39838;59.938;30.642;2023-06-14T07:07:32;9.82;;;3.22;;
48925;SDS011;39838;59.938;30.642;2023-06-14T07:10:00;7.22;;;3.58;;
48925;SDS011;39838;59.938;30.642;2023-06-14T07:12:31;7.65;;;3.60;;
48925;SDS011;39838;59.938;30.642;2023-06-14T07:15:01;10.05;;;3.40;;
48925;SDS011;39838;59.938;30.642;2023-06-14T07:17:30;10.40;;;3.78;;
48925;SDS011;39838;59.938;30.642;2023-06-14T07:19:58;14.73;;;3.33;;
48925;SDS011;39838;59.938;30.642;2023-06-14T07:22:27;10.60;;;3.38;;
48925;SDS011;39838;59.938;30.642;2023-06-14T07:24:54;9.50;;;3.45;;
48925;SDS011;39838;59.938;30.642;2023-06-14T07:27:22;8.68;;;3.38;;
48925;SDS011;39838;59.938;30.642;2023-06-14T07:29:49;10.27;;;3.50;;
48925;SDS011;39838;59.938;30.642;2023-06-14T07:32:16;8.13;;;3.60;;
48925;SDS011;39838;59.938;30.642;2023-06-14T07:34:43;9.07;;;3.65;;
48925;SDS011;39838;59.938;30.642;2023-06-14T07:37:11;12.30;;;3.80;;
48925;SDS011;39838;59.938;30.642;2023-06-14T07:39:40;12.27;;;3.55;;
48925;SDS011;39838;59.938;30.642;2023-06-14T07:42:07;8.85;;;3.55;;
48925;SDS011;39838;59.938;30.642;2023-06-14T07:44:34;11.45;;;4.10;;
48925;SDS011;39838;59.938;30.642;2023-06-14T07:47:02;7.95;;;3.72;;
48925;SDS011;39838;59.938;30.642;2023-06-14T07:49:29;11.77;;;3.75;;
48925;SDS011;39838;59.938;30.642;2023-06-14T07:51:56;18.73;;;3.90;;
48925;SDS011;39838;59.938;30.642;2023-06-14T07:54:24;9.02;;;3.80;;
48925;SDS011;39838;59.938;30.642;2023-06-14T07:56:53;11.82;;;3.92;;
48925;SDS011;39838;59.938;30.642;2023-06-14T07:59:21;10.07;;;3.80;;
48925;SDS011;39838;59.938;30.642;2023-06-14T08:01:48;16.95;;;3.92;;
48925;SDS011;39838;59.938;30.642;2023-06-14T08:04:16;13.57;;;4.10;;
48925;SDS011;39838;59.938;30.642;2023-06-14T08:06:43;10.25;;;3.80;;
48925;SDS011;39838;59.938;30.642;2023-06-14T08:09:11;10.93;;;3.85;;
48925;SDS011;39838;59.938;30.642;2023-06-14T08:11:40;10.73;;;3.70;;
48925;SDS011;39838;59.938;30.642;2023-06-14T08:14:09;12.30;;;3.78;;
48925;SDS011;39838;59.938;30.642;2023-06-14T08:16:36;8.25;;;3.70;;
48925;SDS011;39838;59.938;30.642;2023-06-14T08:19:04;9.45;;;3.78;;
48925;SDS011;39838;59.938;30.642;2023-06-14T08:21:31;10.52;;;4.05;;
48925;SDS011;39838;59.938;30.642;2023-06-14T08:23:59;11.65;;;3.75;;
48925;SDS011;39838;59.938;30.642;2023-06-14T08:26:26;9.93;;;3.88;;
48925;SDS011;39838;59.938;30.642;2023-06-14T08:28:54;15.13;;;4.00;;
48925;SDS011;39838;59.938;30.642;2023-06-14T08:31:23;11.32;;;4.10;;
48925;SDS011;39838;59.938;30.642;2023-06-14T08:33:50;13.55;;;3.70;;
48925;SDS011;39838;59.938;30.642;2023-06-14T08:36:18;8.85;;;3.80;;
48925;SDS011;39838;59.938;30.642;2023-06-14T08:38:45;8.68;;;3.60;;
48925;SDS011;39838;59.938;30.642;2023-06-14T08:41:12;12.25;;;3.70;;
48925;SDS011;39838;59.938;30.642;2023-06-14T08:43:50;7.95;;;4.20;;
48925;SDS011;39838;59.938;30.642;2023-06-14T08:46:18;8.85;;;3.90;;
48925;SDS011;39838;59.938;30.642;2023-06-14T08:48:50;12.57;;;4.10;;
48925;SDS011;39838;59.938;30.642;2023-06-14T08:51:20;8.40;;;3.85;;
48925;SDS011;39838;59.938;30.642;2023-06-14T08:53:51;11.63;;;4.10;;
48925;SDS011;39838;59.938;30.642;2023-06-14T08:56:23;12.68;;;4.18;;
48925;SDS011;39838;59.938;30.642;2023-06-14T08:58:53;5.88;;;3.53;;
48925;SDS011;39838;59.938;30.642;2023-06-14T09:01:20;6.25;;;3.50;;
48925;SDS011;39838;59.938;30.642;2023-06-14T09:03:50;9.25;;;3.90;;
48925;SDS011;39838;59.938;30.642;2023-06-14T09:06:20;14.68;;;3.70;;
48925;SDS011;39838;59.938;30.642;2023-06-14T09:08:48;10.65;;;3.30;;
48925;SDS011;39838;59.938;30.642;2023-06-14T09:11:16;6.97;;;3.38;;
48925;SDS011;39838;59.938;30.642;2023-06-14T09:13:45;9.07;;;3.70;;
48925;SDS011;39838;59.938;30.642;2023-06-14T09:16:13;8.18;;;3.50;;
48925;SDS011;39838;59.938;30.642;2023-06-14T09:18:41;7.20;;;3.45;;
48925;SDS011;39838;59.938;30.642;2023-06-14T09:21:11;7.95;;;3.70;;
48925;SDS011;39838;59.938;30.642;2023-06-14T09:23:39;9.73;;;3.80;;
48925;SDS011;39838;59.938;30.642;2023-06-14T09:26:07;8.27;;;3.97;;
48925;SDS011;39838;59.938;30.642;2023-06-14T09:28:35;9.77;;;3.70;;
48925;SDS011;39838;59.938;30.642;2023-06-14T09:31:03;9.15;;;3.30;;
48925;SDS011;39838;59.938;30.642;2023-06-14T09:33:31;10.13;;;3.55;;
48925;SDS011;39838;59.938;30.642;2023-06-14T09:35:59;10.93;;;3.65;;
48925;SDS011;39838;59.938;30.642;2023-06-14T09:38:28;7.07;;;3.40;;
48925;SDS011;39838;59.938;30.642;2023-06-14T09:40:56;7.10;;;3.80;;
48925;SDS011;39838;59.938;30.642;2023-06-14T09:43:24;7.78;;;3.17;;
48925;SDS011;39838;59.938;30.642;2023-06-14T09:45:53;8.23;;;3.53;;
48925;SDS011;39838;59.938;30.642;2023-06-14T09:48:21;10.05;;;3.75;;
48925;SDS011;39838;59.938;30.642;2023-06-14T09:50:49;8.82;;;3.40;;
48925;SDS011;39838;59.938;30.642;2023-06-14T09:53:17;9.98;;;3.50;;
48925;SDS011;39838;59.938;30.642;2023-06-14T09:55:50;8.55;;;3.42;;
48925;SDS011;39838;59.938;30.642;2023-06-14T09:58:21;6.85;;;3.35;;
48925;SDS011;39838;59.938;30.642;2023-06-14T10:00:52;8.65;;;3.45;;
48925;SDS011;39838;59.938;30.642;2023-06-14T10:03:24;6.68;;;3.60;;
48925;SDS011;39838;59.938;30.642;2023-06-14T10:05:55;8.77;;;3.50;;
48925;SDS011;39838;59.938;30.642;2023-06-14T10:08:27;7.05;;;3.40;;
48925;SDS011;39838;59.938;30.642;2023-06-14T10:11:00;8.40;;;3.67;;
48925;SDS011;39838;59.938;30.642;2023-06-14T10:13:27;7.90;;;3.58;;
48925;SDS011;39838;59.938;30.642;2023-06-14T10:16:00;7.20;;;3.35;;
48925;SDS011;39838;59.938;30.642;2023-06-14T10:18:35;10.75;;;3.33;;
48925;SDS011;39838;59.938;30.642;2023-06-14T10:21:13;9.88;;;3.70;;
48925;SDS011;39838;59.938;30.642;2023-06-14T10:23:45;11.25;;;3.80;;
48925;SDS011;39838;59.938;30.642;2023-06-14T10:26:19;6.38;;;3.47;;
48925;SDS011;39838;59.938;30.642;2023-06-14T10:28:57;9.60;;;3.45;;
48925;SDS011;39838;59.938;30.642;2023-06-14T10:31:39;7.40;;;3.60;;
48925;SDS011;39838;59.938;30.642;2023-06-14T10:34:08;9.15;;;3.75;;
48925;SDS011;39838;59.938;30.642;2023-06-14T10:36:35;13.10;;;3.53;;
48925;SDS011;39838;59.938;30.642;2023-06-14T10:39:06;7.60;;;3.47;;
48925;SDS011;39838;59.938;30.642;2023-06-14T10:41:36;7.53;;;3.78;;
48925;SDS011;39838;59.938;30.642;2023-06-14T10:47:20;5.68;;;3.10;;
48925;SDS011;39838;59.938;30.642;2023-06-14T10:49:50;7.25;;;3.10;;
48925;SDS011;39838;59.938;30.642;2023-06-14T10:52:21;7.20;;;3.80;;
48925;SDS011;39838;59.938;30.642;2023-06-14T10:54:59;10.27;;;3.03;;
48925;SDS011;39838;59.938;30.642;2023-06-14T10:57:38;7.50;;;3.20;;
48925;SDS011;39838;59.938;30.642;2023-06-14T11:00:07;9.93;;;3.60;;
48925;SDS011;39838;59.938;30.642;2023-06-14T11:02:51;4.55;;;3.05;;
48925;SDS011;39838;59.938;30.642;2023-06-14T11:05:50;11.32;;;3.10;;
48925;SDS011;39838;59.938;30.642;2023-06-14T11:08:49;9.15;;;3.08;;
48925;SDS011;39838;59.938;30.642;2023-06-14T11:11:35;6.85;;;3.25;;
48925;SDS011;39838;59.938;30.642;2023-06-14T11:14:06;4.40;;;3.00;;
48925;SDS011;39838;59.938;30.642;2023-06-14T11:16:33;8.43;;;3.30;;
48925;SDS011;39838;59.938;30.642;2023-06-14T11:19:00;11.20;;;6.47;;
48925;SDS011;39838;59.938;30.642;2023-06-14T11:21:32;9.07;;;3.17;;
48925;SDS011;39838;59.938;30.642;2023-06-14T11:24:00;10.10;;;3.10;;
48925;SDS011;39838;59.938;30.642;2023-06-14T11:26:27;7.45;;;3.15;;
48925;SDS011;39838;59.938;30.642;2023-06-14T11:28:55;7.50;;;3.63;;
48925;SDS011;39838;59.938;30.642;2023-06-14T11:31:25;6.18;;;3.42;;
48925;SDS011;39838;59.938;30.642;2023-06-14T11:33:54;6.85;;;2.97;;
48925;SDS011;39838;59.938;30.642;2023-06-14T11:36:22;10.57;;;3.10;;
48925;SDS011;39838;59.938;30.642;2023-06-14T11:38:50;7.93;;;3.17;;
48925;SDS011;39838;59.938;30.642;2023-06-14T11:41:25;6.93;;;3.20;;
48925;SDS011;39838;59.938;30.642;2023-06-14T11:43:52;9.45;;;3.25;;
48925;SDS011;39838;59.938;30.642;2023-06-14T11:46:20;6.03;;;3.08;;
48925;SDS011;39838;59.938;30.642;2023-06-14T11:48:51;6.93;;;3.20;;
48925;SDS011;39838;59.938;30.642;2023-06-14T11:51:19;6.38;;;3.38;;
48925;SDS011;39838;59.938;30.642;2023-06-14T11:53:46;6.75;;;2.95;;
48925;SDS011;39838;59.938;30.642;2023-06-14T11:56:14;5.28;;;3.20;;
48925;SDS011;39838;59.938;30.642;2023-06-14T11:58:42;6.72;;;3.10;;
48925;SDS011;39838;59.938;30.642;2023-06-14T12:01:14;6.53;;;3.35;;
48925;SDS011;39838;59.938;30.642;2023-06-14T12:03:47;4.75;;;3.08;;
48925;SDS011;39838;59.938;30.642;2023-06-14T12:06:16;7.72;;;3.17;;
48925;SDS011;39838;59.938;30.642;2023-06-14T12:08:55;6.85;;;3.63;;
48925;SDS011;39838;59.938;30.642;2023-06-14T12:11:23;5.43;;;3.20;;
48925;SDS011;39838;59.938;30.642;2023-06-14T12:13:56;7.57;;;3.08;;
48925;SDS011;39838;59.938;30.642;2023-06-14T12:16:29;5.93;;;3.22;;
48925;SDS011;39838;59.938;30.642;2023-06-14T12:19:00;5.35;;;3.10;;
48925;SDS011;39838;59.938;30.642;2023-06-14T12:21:30;11.00;;;3.30;;
48925;SDS011;39838;59.938;30.642;2023-06-14T12:24:03;4.75;;;3.10;;
48925;SDS011;39838;59.938;30.642;2023-06-14T12:26:32;7.70;;;3.30;;
48925;SDS011;39838;59.938;30.642;2023-06-14T12:28:59;5.43;;;3.13;;
48925;SDS011;39838;59.938;30.642;2023-06-14T12:31:27;7.38;;;3.13;;
48925;SDS011;39838;59.938;30.642;2023-06-14T12:33:55;7.10;;;3.05;;
48925;SDS011;39838;59.938;30.642;2023-06-14T12:36:22;8.98;;;3.10;;
48925;SDS011;39838;59.938;30.642;2023-06-14T12:38:52;7.80;;;2.97;;
48925;SDS011;39838;59.938;30.642;2023-06-14T12:41:19;5.80;;;3.00;;
48925;SDS011;39838;59.938;30.642;2023-06-14T12:43:47;5.93;;;3.05;;
48925;SDS011;39838;59.938;30.642;2023-06-14T12:46:14;7.35;;;2.95;;
48925;SDS011;39838;59.938;30.642;2023-06-14T12:48:42;6.00;;;2.83;;
48925;SDS011;39838;59.938;30.642;2023-06-14T12:51:09;6.07;;;2.97;;
48925;SDS011;39838;59.938;30.642;2023-06-14T12:53:37;7.60;;;3.03;;
48925;SDS011;39838;59.938;30.642;2023-06-14T12:56:06;5.50;;;3.17;;
48925;SDS011;39838;59.938;30.642;2023-06-14T12:58:33;8.32;;;4.57;;
48925;SDS011;39838;59.938;30.642;2023-06-14T13:01:01;7.70;;;4.78;;
48925;SDS011;39838;59.938;30.642;2023-06-14T13:03:28;7.28;;;3.90;;
48925;SDS011;39838;59.938;30.642;2023-06-14T13:05:55;10.13;;;3.83;;
48925;SDS011;39838;59.938;30.642;2023-06-14T13:08:22;6.07;;;3.38;;
48925;SDS011;39838;59.938;30.642;2023-06-14T13:10:50;10.40;;;3.95;;
48925;SDS011;39838;59.938;30.642;2023-06-14T13:13:18;7.65;;;3.72;;
48925;SDS011;39838;59.938;30.642;2023-06-14T13:15:46;13.70;;;3.58;;
48925;SDS011;39838;59.938;30.642;2023-06-14T13:18:15;8.07;;;4.13;;
48925;SDS011;39838;59.938;30.642;2023-06-14T13:20:42;22.70;;;4.28;;
48925;SDS011;39838;59.938;30.642;2023-06-14T13:23:09;9.13;;;3.30;;
48925;SDS011;39838;59.938;30.642;2023-06-14T13:25:37;20.58;;;3.55;;
48925;SDS011;39838;59.938;30.642;2023-06-14T13:28:05;10.43;;;3.70;;
48925;SDS011;39838;59.938;30.642;2023-06-14T13:30:34;9.57;;;3.25;;
48925;SDS011;39838;59.938;30.642;2023-06-14T13:33:01;11.88;;;3.72;;
48925;SDS011;39838;59.938;30.642;2023-06-14T13:35:29;12.20;;;3.30;;
48925;SDS011;39838;59.938;30.642;2023-06-14T13:37:56;8.80;;;3.15;;
48925;SDS011;39838;59.938;30.642;2023-06-14T13:40:23;6.88;;;3.55;;
48925;SDS011;39838;59.938;30.642;2023-06-14T13:42:51;8.68;;;3.28;;
48925;SDS011;39838;59.938;30.642;2023-06-14T13:45:18;8.15;;;3.13;;
48925;SDS011;39838;59.938;30.642;2023-06-14T13:47:47;8.88;;;3.08;;
48925;SDS011;39838;59.938;30.642;2023-06-14T13:50:14;5.97;;;3.05;;
48925;SDS011;39838;59.938;30.642;2023-06-14T13:52:43;6.45;;;3.10;;
48925;SDS011;39838;59.938;30.642;2023-06-14T13:55:10;5.38;;;3.15;;
48925;SDS011;39838;59.938;30.642;2023-06-14T13:57:37;5.07;;;3.00;;
48925;SDS011;39838;59.938;30.642;2023-06-14T14:00:05;4.95;;;2.90;;
48925;SDS011;39838;59.938;30.642;2023-06-14T14:02:34;9.02;;;3.05;;
48925;SDS011;39838;59.938;30.642;2023-06-14T14:05:03;7.57;;;4.00;;
48925;SDS011;39838;59.938;30.642;2023-06-14T14:07:30;4.40;;;3.03;;
48925;SDS011;39838;59.938;30.642;2023-06-14T14:09:58;7.97;;;3.15;;
48925;SDS011;39838;59.938;30.642;2023-06-14T14:12:25;5.70;;;3.30;;
48925;SDS011;39838;59.938;30.642;2023-06-14T14:14:54;4.97;;;2.90;;
48925;SDS011;39838;59.938;30.642;2023-06-14T14:17:21;8.55;;;2.97;;
48925;SDS011;39838;59.938;30.642;2023-06-14T14:19:48;8.82;;;3.30;;
48925;SDS011;39838;59.938;30.642;2023-06-14T14:22:17;4.93;;;3.17;;
48925;SDS011;39838;59.938;30.642;2023-06-14T14:24:44;6.82;;;3.00;;
48925;SDS011;39838;59.938;30.642;2023-06-14T14:27:12;10.98;;;3.03;;
48925;SDS011;39838;59.938;30.642;2023-06-14T14:29:39;8.68;;;3.20;;
48925;SDS011;39838;59.938;30.642;2023-06-14T14:32:16;8.23;;;3.10;;
48925;SDS011;39838;59.938;30.642;2023-06-14T14:34:44;12.60;;;3.40;;
48925;SDS011;39838;59.938;30.642;2023-06-14T14:37:11;6.53;;;3.08;;
48925;SDS011;39838;59.938;30.642;2023-06-14T14:39:41;13.10;;;3.17;;
48925;SDS011;39838;59.938;30.642;2023-06-14T14:42:10;7.82;;;3.30;;
48925;SDS011;39838;59.938;30.642;2023-06-14T14:44:38;10.77;;;2.90;;